Time;durP1;ratioP1;P1;durP2;ratioP2;P2;SDS_P1;SDS_P2;PMS_P1;PMS_P2;Temp;Humidity;BMP_temperature;BMP_pressure;BME280_temperature;BME280_humidity;BME280_pressure;Samples;Min_cycle;Max_cycle;Signal;HPM_P1;HPM_P2
2022/03/20 00:00:53;;;;;;;0.20;0.20;;;;;;;4.12;100.00;100836.22;4951457;29;20224;-78
2022/03/20 00:03:24;;;;;;;0.57;0.57;;;4.20;99.90;;;4.13;100.00;100838.91;4952392;29;20210;-78
2022/03/20 00:05:54;;;;;;;0.30;0.30;;;;;;;4.09;100.00;100831.75;4951162;29;20217;-78
2022/03/20 00:08:24;;;;;;;0.20;0.20;;;4.20;99.90;;;4.08;100.00;100824.75;4948427;29;20218;-77
2022/03/20 00:10:55;;;;;;;0.30;0.30;;;4.20;99.90;;;4.08;100.00;100822.13;4951305;28;20237;-77
2022/03/20 00:13:24;;;;;;;0.30;0.30;;;4.20;99.90;;;4.05;100.00;100814.16;4948386;29;20208;-78
2022/03/20 00:15:55;;;;;;;0.30;0.30;;;4.20;99.90;;;4.05;100.00;100814.16;4951801;29;20206;-78
2022/03/20 00:18:25;;;;;;;0.20;0.20;;;4.20;99.90;;;4.06;100.00;100815.94;4938797;29;20213;-78
2022/03/20 00:20:56;;;;;;;0.30;0.30;;;4.20;99.90;;;4.03;100.00;100805.34;4952712;29;20225;-78
2022/03/20 00:23:26;;;;;;;0.30;0.30;;;4.20;99.90;;;4.04;100.00;100801.88;4953397;29;20210;-78
2022/03/20 00:25:55;;;;;;;0.30;0.30;;;4.20;99.90;;;4.03;100.00;100788.75;4952260;28;20210;-78
2022/03/20 00:28:25;;;;;;;0.30;0.30;;;4.10;99.90;;;3.89;100.00;100772.44;4933246;29;20210;-78
2022/03/20 00:30:55;;;;;;;0.35;0.35;;;4.10;99.90;;;3.82;100.00;100763.47;4947664;28;20592;-78
2022/03/20 00:33:24;;;;;;;0.20;0.20;;;4.10;99.90;;;3.82;100.00;100765.19;4951032;28;20202;-78
2022/03/20 00:35:52;;;;;;;0.30;0.30;;;4.10;99.90;;;3.73;100.00;100751.72;4945879;29;20205;-78
2022/03/20 00:38:21;;;;;;;0.30;0.30;;;4.00;99.90;;;3.70;100.00;100756.81;4949404;28;20213;-79
2022/03/20 00:40:50;;;;;;;0.30;0.30;;;;;;;3.61;100.00;100748.59;4952166;29;20238;-77
2022/03/20 00:43:18;;;;;;;0.30;0.30;;;;;;;3.57;100.00;100751.91;4954383;28;20210;-79
2022/03/20 00:45:47;;;;;;;0.30;0.30;;;;;;;3.48;100.00;100753.31;4927543;28;20202;-78
2022/03/20 00:48:15;;;;;;;0.30;0.30;;;;;;;3.39;100.00;100754.66;4953821;28;20206;-78
2022/03/20 00:50:43;;;;;;;0.30;0.30;;;3.80;99.90;;;3.27;100.00;100754.13;4949161;29;20229;-77
2022/03/20 00:53:11;;;;;;;0.30;0.30;;;3.70;99.90;;;3.24;100.00;100773.16;4965575;23;20233;-78
2022/03/20 00:55:40;;;;;;;1.02;1.02;;;3.60;99.90;;;3.17;100.00;100774.63;4971549;28;20277;-78
2022/03/20 00:58:10;;;;;;;0.30;0.30;;;3.50;99.90;;;3.11;100.00;100776.06;4953976;28;20224;-81
2022/03/20 01:00:38;;;;;;;0.30;0.30;;;3.60;99.90;;;3.13;100.00;100787.50;4974650;28;20288;-80
2022/03/20 01:03:06;;;;;;;0.20;0.20;;;3.70;99.90;;;3.19;100.00;100801.72;4981527;28;20206;-80
2022/03/20 01:05:34;;;;;;;0.30;0.30;;;3.50;99.90;;;3.08;100.00;100800.34;4974552;28;20237;-80
2022/03/20 01:08:02;;;;;;;0.32;0.32;;;3.30;99.90;;;3.09;100.00;100804.75;4974799;28;20209;-80
2022/03/20 01:10:36;;;;;;;0.40;0.40;;;3.30;99.90;;;3.12;100.00;100804.00;4969290;28;20709;-79
2022/03/20 01:13:04;;;;;;;0.30;0.30;;;3.40;99.90;;;3.06;100.00;100794.16;4960337;28;20232;-79
2022/03/20 01:15:32;;;;;;;0.40;0.40;;;3.30;99.90;;;3.07;100.00;100792.44;4963256;28;20217;-78
2022/03/20 01:18:00;;;;;;;1.30;1.30;;;3.20;99.90;;;3.06;100.00;100795.88;4972746;28;20213;-79
2022/03/20 01:20:28;;;;;;;0.30;0.30;;;3.20;99.90;;;3.08;100.00;100796.84;4952359;28;20228;-79
2022/03/20 01:22:56;;;;;;;0.30;0.30;;;3.20;99.90;;;3.09;100.00;100790.78;4970164;28;20205;-79
2022/03/20 01:25:24;;;;;;;0.30;0.30;;;3.30;99.90;;;3.01;100.00;100781.72;4967375;28;20209;-78
2022/03/20 01:27:52;;;;;;;0.30;0.30;;;3.40;99.90;;;3.03;100.00;100780.06;4942717;28;20220;-79
2022/03/20 01:30:21;;;;;;;0.30;0.30;;;3.30;99.90;;;3.05;100.00;100770.56;4949989;29;20229;-78
2022/03/20 01:32:49;;;;;;;0.30;0.30;;;3.10;99.90;;;2.99;100.00;100759.84;4955753;28;20213;-78
2022/03/20 01:35:17;;;;;;;0.30;0.30;;;3.10;99.90;;;2.97;100.00;100754.56;4967177;28;20285;-79
2022/03/20 01:37:45;;;;;;;0.30;0.30;;;3.30;99.90;;;3.07;100.00;100761.09;4953864;28;20229;-80
2022/03/20 01:40:13;;;;;;;0.30;0.30;;;3.10;99.90;;;2.94;100.00;100741.38;4945069;28;20314;-80
2022/03/20 01:42:41;;;;;;;0.50;0.50;;;3.10;99.90;;;3.01;100.00;100746.03;4952990;28;20205;-81
2022/03/20 01:45:19;;;;;;;0.30;0.30;;;3.20;99.90;;;2.96;100.00;100728.38;4964563;28;20213;-79
2022/03/20 01:47:49;;;;;;;0.30;0.30;;;3.10;99.90;;;3.00;100.00;100727.69;4947097;29;20221;-79
2022/03/20 01:50:27;;;;;;;0.40;0.40;;;3.10;99.90;;;2.96;99.19;100720.53;4947974;28;20238;-78
2022/03/20 01:52:57;;;;;;;0.30;0.30;;;3.00;99.90;;;2.86;99.65;100703.56;4969121;28;20215;-78
2022/03/20 01:55:27;;;;;;;0.30;0.30;;;3.00;99.90;;;2.93;98.91;100707.34;4972055;28;20217;-78
2022/03/20 01:57:56;;;;;;;0.40;0.40;;;3.10;99.90;;;2.86;99.22;100694.00;4972811;28;20208;-79
2022/03/20 02:00:26;;;;;;;0.50;0.50;;;3.20;99.90;;;2.73;99.34;100673.41;4972390;28;20237;-79
2022/03/20 02:02:55;;;;;;;0.40;0.40;;;2.90;99.90;;;2.82;99.00;100681.63;4971707;28;20231;-80
2022/03/20 02:05:24;;;;;;;0.40;0.40;;;3.00;99.90;;;2.92;98.44;100693.38;4969081;28;20213;-79
2022/03/20 02:07:53;;;;;;;0.40;0.40;;;3.00;99.90;;;2.76;98.59;100670.94;4954884;28;20220;-78
2022/03/20 02:10:22;;;;;;;0.50;0.50;;;2.90;99.90;;;2.73;98.38;100669.91;4971780;28;20233;-79
2022/03/20 02:12:49;;;;;;;0.40;0.40;;;3.00;99.90;;;2.77;98.36;100675.31;4955043;28;20236;-79
2022/03/20 02:15:20;;;;;;;0.40;0.40;;;2.80;99.90;;;2.72;98.38;100670.72;4955442;28;20209;-79
2022/03/20 02:17:48;;;;;;;0.30;0.30;;;;;;;2.78;98.08;100673.59;4953816;28;20220;-79
2022/03/20 02:20:20;;;;;;;0.30;0.30;;;2.80;99.90;;;2.72;98.20;100666.41;4968413;28;20232;-78
2022/03/20 02:22:50;;;;;;;0.30;0.30;;;2.80;99.90;;;2.68;98.00;100650.53;4973356;28;20209;-78
2022/03/20 02:25:19;;;;;;;0.40;0.40;;;2.70;99.90;;;2.64;98.09;100649.50;4952287;28;20216;-79
2022/03/20 02:27:47;;;;;;;0.40;0.40;;;2.80;99.90;;;2.61;98.11;100649.38;4967212;28;20210;-79
2022/03/20 02:30:18;;;;;;;0.30;0.30;;;2.80;99.90;;;2.61;98.27;100648.47;4955560;28;20229;-78
2022/03/20 02:32:49;;;;;;;0.30;0.30;;;3.00;99.90;;;2.62;97.32;100639.81;4965683;28;20606;-78
2022/03/20 02:35:19;;;;;;;0.60;0.60;;;2.70;99.90;;;2.64;97.23;100633.84;4960520;28;20213;-78
2022/03/20 02:37:50;;;;;;;0.30;0.30;;;2.70;99.90;;;2.56;97.38;100630.84;4977699;28;20581;-78
2022/03/20 02:40:21;;;;;;;0.30;0.30;;;3.10;99.90;;;2.47;97.20;100616.50;4976315;28;20229;-78
2022/03/20 02:42:53;;;;;;;0.30;0.30;;;2.60;99.90;;;2.51;96.90;100616.72;4959492;28;20201;-79
2022/03/20 02:45:27;;;;;;;0.30;0.30;;;2.60;99.90;;;2.61;96.18;100623.25;4973795;28;20205;-79
2022/03/20 02:47:57;;;;;;;0.38;0.38;;;;;;;2.61;95.59;100636.31;4976196;28;20200;-77
2022/03/20 02:50:35;;;;;;;0.20;0.20;;;2.60;99.90;;;2.53;95.52;100617.66;4970225;28;20229;-78
2022/03/20 02:53:04;;;;;;;0.40;0.40;;;2.60;99.90;;;2.54;95.62;100616.84;4972318;28;20237;-78
2022/03/20 02:55:37;;;;;;;0.30;0.30;;;2.80;99.90;;;2.54;95.48;100609.00;4972984;28;20209;-78
2022/03/20 02:58:10;;;;;;;0.30;0.30;;;2.60;99.90;;;2.55;95.23;100613.41;4975642;28;20233;-79
2022/03/20 03:00:40;;;;;;;0.35;0.35;;;2.60;99.90;;;2.47;95.07;100611.28;4972014;28;20228;-79
2022/03/20 03:03:11;;;;;;;0.40;0.40;;;2.60;99.90;;;2.52;95.54;100613.28;4958085;28;20206;-78
2022/03/20 03:05:41;;;;;;;0.30;0.30;;;2.70;99.90;;;2.41;95.82;100609.28;4973676;28;20281;-78
2022/03/20 03:10:59;;;;;;;0.30;0.30;;;2.80;99.90;;;2.37;95.02;100603.88;4958442;28;20222;-78
2022/03/20 03:13:34;;;;;;;0.30;0.30;;;2.50;99.90;;;2.48;95.22;100620.91;4955029;28;20217;-78
2022/03/20 03:16:13;;;;;;;0.30;0.30;;;2.70;99.90;;;2.49;94.78;100625.28;4973270;28;20204;-78
2022/03/20 03:18:47;;;;;;;0.30;0.30;;;2.50;99.90;;;2.49;95.09;100626.19;4971302;28;20212;-78
2022/03/20 03:21:18;;;;;;;2.83;2.70;;;2.50;99.90;;;2.40;95.11;100609.22;4971392;28;20710;-78
2022/03/20 03:23:46;;;;;;;0.30;0.30;;;2.60;99.90;;;2.48;95.52;100626.13;4969258;28;20236;-79
2022/03/20 03:26:15;;;;;;;0.30;0.30;;;2.50;99.90;;;2.45;94.41;100624.25;4962460;28;20206;-78
2022/03/20 03:28:43;;;;;;;0.20;0.20;;;2.90;99.90;;;2.49;95.47;100625.28;4969970;28;20209;-79
2022/03/20 03:31:12;;;;;;;0.30;0.30;;;2.60;99.90;;;2.46;94.76;100614.72;4970279;28;20240;-78
2022/03/20 03:36:28;;;;;;;0.40;0.40;;;2.50;99.90;;;2.43;93.84;100611.97;4972776;28;20221;-78
2022/03/20 03:38:56;;;;;;;0.30;0.30;;;2.50;99.90;;;2.42;94.63;100605.88;4968441;28;20209;-80
2022/03/20 03:41:24;;;;;;;0.30;0.30;;;2.50;99.90;;;2.56;95.68;100637.78;4970620;28;20213;-78
2022/03/20 03:43:52;;;;;;;0.40;0.40;;;2.60;99.90;;;2.52;94.47;100620.22;4972646;28;20212;-78
2022/03/20 03:46:20;;;;;;;0.32;0.32;;;2.60;99.90;;;2.47;94.26;100625.22;4969127;28;20221;-78
2022/03/20 03:48:48;;;;;;;0.30;0.30;;;2.60;99.90;;;2.43;94.74;100619.81;4963961;28;20208;-78
2022/03/20 03:51:16;;;;;;;0.40;0.40;;;2.60;99.90;;;2.43;95.29;100628.53;4938147;29;20606;-79
2022/03/20 03:53:44;;;;;;;0.30;0.30;;;2.70;99.90;;;2.51;94.53;100628.88;4966866;28;20233;-78
2022/03/20 03:56:12;;;;;;;0.30;0.30;;;2.50;99.90;;;2.60;94.27;100639.75;4971425;28;20205;-79
2022/03/20 03:58:40;;;;;;;0.40;0.40;;;2.50;99.90;;;2.53;92.68;100629.81;4968447;28;20220;-79
2022/03/20 04:01:09;;;;;;;0.30;0.30;;;2.70;99.90;;;2.55;92.66;100615.13;4955192;28;20245;-80
2022/03/20 04:03:37;;;;;;;0.40;0.40;;;2.60;99.90;;;2.56;93.51;100614.28;4956106;28;20217;-79
2022/03/20 04:06:06;;;;;;;0.40;0.40;;;2.90;99.90;;;2.62;93.31;100622.44;4970418;28;20214;-79
2022/03/20 04:08:35;;;;;;;0.32;0.32;;;2.70;99.90;;;2.65;93.09;100622.56;4970155;28;20205;-79
2022/03/20 04:11:03;;;;;;;0.32;0.32;;;2.70;99.90;;;2.54;93.54;100637.72;4970229;28;20229;-81
2022/03/20 04:13:31;;;;;;;0.40;0.40;;;2.70;99.90;;;2.47;94.53;100650.44;4950936;28;20237;-79
2022/03/20 04:15:59;;;;;;;0.40;0.40;;;2.70;99.90;;;2.56;93.33;100654.34;4967271;28;20671;-78
2022/03/20 04:18:27;;;;;;;0.30;0.30;;;2.60;99.90;;;2.57;92.79;100637.84;4967589;28;20221;-78
2022/03/20 04:20:55;;;;;;;0.30;0.30;;;2.60;99.90;;;2.52;92.39;100628.94;4966728;28;20708;-78
2022/03/20 04:26:10;;;;;;;0.40;0.40;;;2.60;99.90;;;2.55;92.13;100629.06;4966170;28;20202;-80
2022/03/20 04:28:38;;;;;;;0.40;0.40;;;2.80;99.90;;;2.55;92.67;100628.19;4963247;28;20229;-78
2022/03/20 04:31:06;;;;;;;0.30;0.30;;;2.70;99.90;;;2.59;92.16;100622.25;4972726;28;20570;-79
2022/03/20 04:33:35;;;;;;;0.73;0.73;;;3.00;99.90;;;2.50;92.14;100617.53;4974676;28;20232;-78
2022/03/20 04:36:03;;;;;;;0.30;0.30;;;2.70;99.90;;;2.66;92.50;100626.06;4934619;28;20210;-78
2022/03/20 04:38:31;;;;;;;0.32;0.32;;;2.70;99.90;;;2.56;93.61;100630.84;4963606;28;20689;-79
2022/03/20 04:40:59;;;;;;;0.40;0.40;;;3.10;99.90;;;2.50;95.11;100640.13;4973731;28;20225;-79
2022/03/20 04:43:27;;;;;;;0.95;0.95;;;2.80;99.90;;;2.43;94.86;100644.19;4957294;28;20224;-79
2022/03/20 04:45:56;;;;;;;0.30;0.30;;;;;;;2.45;94.63;100658.19;4974480;28;20206;-79
2022/03/20 04:59:33;;;;;;;0.40;0.40;;;2.60;99.90;;;2.48;94.48;100667.88;4968248;28;20240;-78
2022/03/20 05:02:02;;;;;;;0.30;0.30;;;2.80;99.90;;;2.32;95.38;100661.09;4973134;28;20209;-78
2022/03/20 05:04:30;;;;;;;0.82;0.82;;;2.50;99.90;;;2.30;95.91;100678.38;4949452;28;20209;-79
2022/03/20 05:06:58;;;;;;;0.30;0.30;;;2.50;99.90;;;2.31;95.95;100681.88;4973951;28;20201;-79
2022/03/20 05:15:00;;;;;;;0.40;0.40;;;3.10;99.90;;;2.33;97.06;100699.41;4966072;28;20208;-78
2022/03/20 05:17:28;;;;;;;0.40;0.40;;;2.40;99.90;;;2.11;100.00;100699.22;4973022;28;20216;-79
2022/03/20 05:19:56;;;;;;;0.30;0.30;;;2.40;99.90;;;2.08;99.66;100718.25;4952565;28;20222;-79
2022/03/20 05:22:24;;;;;;;0.40;0.40;;;2.40;99.90;;;2.07;100.00;100723.38;4969463;28;20209;-79
2022/03/20 05:24:53;;;;;;;0.40;0.40;;;2.40;99.90;;;2.07;100.00;100742.53;4948864;28;20198;-78
2022/03/20 05:27:21;;;;;;;0.38;0.38;;;2.30;99.90;;;2.11;100.00;100749.69;4970837;28;20209;-78
2022/03/20 05:29:49;;;;;;;0.20;0.20;;;3.30;99.90;;;1.92;100.00;100742.69;4969793;28;20233;-78
2022/03/20 05:32:17;;;;;;;0.30;0.30;;;3.00;99.90;;;1.94;100.00;100776.69;4955475;28;20213;-79
2022/03/20 05:34:45;;;;;;;0.40;0.40;;;3.00;99.90;;;1.94;100.00;100784.50;4957642;28;20224;-78
2022/03/20 05:37:13;;;;;;;0.60;0.60;;;2.20;99.90;;;2.07;100.00;100809.47;4970916;28;20208;-78
2022/03/20 05:39:41;;;;;;;0.40;0.40;;;2.30;99.90;;;2.08;100.00;100814.75;4939475;28;20704;-79
2022/03/20 05:42:09;;;;;;;0.32;0.32;;;2.30;99.90;;;2.12;100.00;100815.81;4949387;28;20208;-78
2022/03/20 05:44:37;;;;;;;0.50;0.50;;;2.50;99.90;;;2.03;100.00;100807.53;4977199;28;20205;-78
2022/03/20 05:47:06;;;;;;;0.40;0.40;;;2.50;99.90;;;1.97;100.00;100797.69;4967091;28;20236;-79
2022/03/20 05:49:35;;;;;;;0.40;0.40;;;2.30;99.90;;;2.10;100.00;100804.41;4957434;28;20217;-80
2022/03/20 05:52:04;;;;;;;1.10;1.10;;;2.40;99.90;;;2.21;98.95;100806.72;4945790;28;20217;-78
2022/03/20 05:54:32;;;;;;;0.40;0.40;;;2.30;99.90;;;2.27;98.66;100807.81;4966283;28;20233;-78
2022/03/20 05:59:47;;;;;;;0.40;0.40;;;2.40;99.90;;;2.16;99.91;100807.31;4972271;28;20571;-78
2022/03/20 06:02:16;;;;;;;0.40;0.40;;;2.40;99.90;;;2.30;98.96;100824.53;4973157;28;20205;-78
2022/03/20 06:04:44;;;;;;;0.30;0.30;;;2.50;99.90;;;2.40;96.27;100804.97;4964217;28;20218;-80
2022/03/20 06:07:13;;;;;;;0.30;0.30;;;2.70;99.90;;;2.39;96.76;100801.47;4943023;28;20202;-82
2022/03/20 06:09:41;;;;;;;1.45;1.02;;;3.20;99.90;;;2.31;99.19;100814.97;4975309;28;20228;-83
2022/03/20 06:12:10;;;;;;;0.30;0.30;;;3.00;99.90;;;2.49;95.94;100811.53;4979273;28;20213;-80
2022/03/20 06:14:38;;;;;;;0.30;0.30;;;2.60;99.90;;;2.63;93.58;100806.09;4977918;28;20224;-81
2022/03/20 06:17:08;;;;;;;0.30;0.30;;;3.60;99.90;;;2.49;97.89;100793.25;4945030;28;20201;-80
2022/03/20 06:19:36;;;;;;;0.30;0.30;;;3.70;99.90;;;2.65;94.13;100787.06;4978227;28;20225;-80
2022/03/20 06:22:05;;;;;;;0.40;0.40;;;3.40;99.90;;;2.64;93.48;100789.59;4979022;28;20268;-81
2022/03/20 06:25:08;;;;;;;0.57;0.57;;;2.70;99.90;;;2.61;95.20;100816.47;4953966;28;20315;-82
2022/03/20 06:27:45;;;;;;;0.40;0.40;;;3.40;99.90;;;3.00;89.72;100822.63;4960485;28;20209;-82
2022/03/20 06:30:14;;;;;;;0.40;0.40;;;2.70;99.90;;;3.00;89.29;100803.44;4977824;28;20232;-82
2022/03/20 06:32:45;;;;;;;0.30;0.30;;;2.80;99.90;;;2.87;93.30;100821.19;4978359;28;20209;-82
2022/03/20 06:35:17;;;;;;;0.40;0.40;;;3.80;99.90;;;2.92;92.62;100834.44;4978438;28;20231;-81
2022/03/20 06:37:49;;;;;;;0.40;0.40;;;2.90;99.90;;;3.01;92.47;100847.94;4977949;28;20210;-82
2022/03/20 06:40:18;;;;;;;0.30;0.30;;;3.80;99.90;;;3.11;92.42;100860.59;4974465;28;20235;-82
2022/03/20 06:42:46;;;;;;;1.75;1.65;;;3.00;99.90;;;3.17;91.24;100857.34;4960373;28;20205;-82
2022/03/20 06:45:15;;;;;;;0.65;0.65;;;4.00;99.90;;;3.20;90.64;100852.28;4971971;28;20209;-82
2022/03/20 06:47:44;;;;;;;0.30;0.30;;;4.30;99.90;;;3.22;90.04;100850.63;4972008;28;20208;-83
2022/03/20 06:50:23;;;;;;;0.30;0.30;;;3.60;99.90;;;3.21;90.98;100851.44;4966761;28;20229;-82
2022/03/20 06:53:04;;;;;;;0.40;0.40;;;3.30;99.90;;;3.26;90.53;100852.53;4976836;28;20220;-79
2022/03/20 06:55:33;;;;;;;0.40;0.40;;;3.40;99.90;;;3.31;89.92;100848.41;4976791;28;20205;-79
2022/03/20 06:58:01;;;;;;;0.40;0.40;;;3.40;99.90;;;3.41;88.96;100844.50;4977425;28;20202;-79
2022/03/20 07:00:30;;;;;;;1.67;1.58;;;3.40;99.90;;;3.48;88.95;100852.66;4976241;28;20233;-79
2022/03/20 07:03:03;;;;;;;0.47;0.47;;;3.40;99.90;;;3.51;87.68;100847.56;4971825;28;20209;-79
2022/03/20 07:05:35;;;;;;;0.40;0.40;;;3.50;99.90;;;3.62;87.73;100853.28;4976666;28;20205;-79
2022/03/20 07:08:05;;;;;;;0.30;0.30;;;3.50;99.90;;;3.60;88.01;100848.81;4977249;28;20210;-78
2022/03/20 07:10:33;;;;;;;0.50;0.50;;;3.60;99.90;;;3.70;86.86;100838.81;4976561;28;20236;-79
2022/03/20 07:15:57;;;;;;;2.78;2.58;;;3.70;99.90;;;3.80;86.36;100832.25;4954960;28;20209;-79
2022/03/20 07:18:25;;;;;;;0.30;0.30;;;3.80;99.90;;;3.86;85.02;100816.81;4963409;28;20212;-80
2022/03/20 07:20:54;;;;;;;0.30;0.30;;;3.80;99.90;;;3.97;83.57;100807.69;4972739;28;20229;-78
2022/03/20 07:23:22;;;;;;;0.30;0.30;;;3.90;99.90;;;4.00;83.79;100799.97;4973303;28;20217;-79
2022/03/20 07:31:23;;;;;;;0.30;0.30;;;4.00;99.90;;;4.26;83.26;100813.22;4970431;28;20197;-78
2022/03/20 07:33:51;;;;;;;0.30;0.30;;;4.10;99.90;;;4.36;83.92;100833.72;4974362;28;20236;-78
2022/03/20 07:36:20;;;;;;;0.30;0.30;;;4.10;99.90;;;4.40;82.07;100820.81;4957813;28;20209;-79
2022/03/20 07:38:51;;;;;;;0.30;0.30;;;4.90;99.90;;;4.46;82.70;100826.28;4968436;28;20202;-79
2022/03/20 07:41:19;;;;;;;0.93;0.93;;;4.30;99.90;;;4.58;81.17;100824.97;4958638;28;20233;-79
2022/03/20 07:43:48;;;;;;;0.20;0.20;;;4.30;99.90;;;4.71;81.25;100833.38;4968346;28;20214;-78
2022/03/20 07:46:16;;;;;;;0.30;0.30;;;4.50;99.90;;;5.02;83.39;100890.47;4963111;28;20287;-79
2022/03/20 07:48:45;;;;;;;0.30;0.30;;;;;;;5.19;82.39;100895.47;4953473;28;20213;-77
2022/03/20 07:51:17;;;;;;;0.30;0.30;;;4.80;99.90;;;5.37;81.88;100902.34;4975355;28;20225;-79
2022/03/20 07:53:45;;;;;;;0.30;0.30;;;5.00;99.90;;;5.49;80.44;100886.16;4964949;28;20217;-80
2022/03/20 07:56:19;;;;;;;0.20;0.20;;;5.10;99.90;;;5.61;81.38;100881.34;4979930;28;20216;-78
2022/03/20 07:58:48;;;;;;;0.30;0.30;;;;;;;5.66;80.47;100874.53;4952731;28;20205;-80
2022/03/20 08:01:16;;;;;;;0.30;0.30;;;5.40;99.90;;;5.70;79.18;100860.69;4970940;28;20225;-77
2022/03/20 08:03:50;;;;;;;0.20;0.20;;;5.50;99.90;;;5.91;80.76;100885.94;4974070;28;20213;-81
2022/03/20 08:06:18;;;;;;;0.30;0.30;;;;;;;5.93;79.40;100864.16;4975813;28;20214;-81
2022/03/20 08:08:46;;;;;;;0.30;0.30;;;;;;;6.02;79.10;100863.56;4963368;28;20642;-80
2022/03/20 08:11:15;;;;;;;0.30;0.30;;;;;;;6.04;78.54;100843.50;4962139;28;20222;-79
2022/03/20 08:13:44;;;;;;;0.30;0.30;;;5.90;99.90;;;6.18;78.87;100865.88;4971728;28;20231;-79
2022/03/20 08:16:15;;;;;;;0.30;0.30;;;;;;;6.22;79.22;100864.25;4972833;28;20224;-79
2022/03/20 08:18:46;;;;;;;0.60;0.60;;;;;;;6.47;78.76;100879.06;4971452;28;20201;-81
2022/03/20 08:21:15;;;;;;;0.30;0.30;;;6.20;99.90;;;6.52;78.89;100875.78;4967692;28;20236;-82
2022/03/20 08:23:46;;;;;;;0.20;0.20;;;6.40;99.90;;;6.49;78.82;100853.72;4970053;28;20209;-81
2022/03/20 08:26:15;;;;;;;0.20;0.20;;;;;;;6.60;79.68;100878.66;4971135;28;20225;-79
2022/03/20 08:28:44;;;;;;;0.30;0.30;;;6.50;99.90;;;6.84;79.58;100900.47;4972669;28;20213;-81
2022/03/20 08:31:13;;;;;;;0.20;0.20;;;6.60;99.90;;;6.80;78.12;100863.50;4972924;28;20229;-81
2022/03/20 08:33:41;;;;;;;0.20;0.20;;;;;;;7.03;77.33;100868.63;4970225;28;20214;-81
2022/03/20 08:36:12;;;;;;;0.30;0.30;;;;;;;7.12;77.07;100861.84;4936842;28;20263;-83
2022/03/20 08:38:41;;;;;;;0.20;0.20;;;;;;;7.16;76.61;100846.19;4971663;28;20583;-79
2022/03/20 08:41:09;;;;;;;0.20;0.20;;;;;;;7.36;76.75;100859.94;4972871;28;20234;-81
2022/03/20 08:43:38;;;;;;;0.20;0.20;;;;;;;7.27;76.26;100826.38;4952761;29;20205;-81
2022/03/20 08:46:06;;;;;;;0.20;0.20;;;;;;;7.36;76.82;100839.78;4950274;28;20209;-81
2022/03/20 08:48:35;;;;;;;0.20;0.20;;;7.20;99.90;;;7.49;75.70;100835.75;4954131;28;20213;-80
2022/03/20 08:51:03;;;;;;;0.20;0.20;;;;;;;7.71;76.02;100856.53;4948640;28;20225;-82
2022/03/20 08:53:33;;;;;;;7.32;1.67;;;;;;;7.69;76.05;100842.44;4953124;28;20585;-82
2022/03/20 08:56:01;;;;;;;0.20;0.20;;;;;;;7.94;76.46;100861.56;4958082;28;20233;-84
2022/03/20 08:58:30;;;;;;;0.20;0.20;;;;;;;8.00;74.58;100835.38;4969933;28;20206;-83
2022/03/20 09:00:58;;;;;;;0.30;0.30;;;7.80;99.90;;;8.19;75.68;100848.16;4955549;28;20217;-84
2022/03/20 09:03:32;;;;;;;0.20;0.20;;;7.90;99.90;;;8.32;75.65;100850.25;4974591;28;20213;-81
2022/03/20 09:06:01;;;;;;;0.20;0.20;;;8.00;99.90;;;8.25;75.38;100829.00;4966886;28;20212;-80
2022/03/20 09:08:30;;;;;;;0.20;0.20;;;;;;;8.21;75.02;100809.59;4954972;28;20218;-79
2022/03/20 09:10:58;;;;;;;0.40;0.40;;;8.20;99.90;;;8.40;75.11;100823.22;4973891;28;20229;-80
2022/03/20 09:13:26;;;;;;;0.45;0.45;;;8.20;99.90;;;8.29;74.74;100800.13;4974283;28;20209;-79
2022/03/20 09:18:59;;;;;;;0.20;0.20;;;8.30;99.90;;;8.50;75.57;100822.59;4971222;28;20209;-80
2022/03/20 09:21:30;;;;;;;0.20;0.20;;;8.40;99.90;;;8.52;75.81;100832.31;4946146;28;20220;-78
2022/03/20 09:24:02;;;;;;;0.30;0.30;;;8.50;99.90;;;8.61;75.19;100818.47;4968041;28;20297;-81
2022/03/20 09:26:31;;;;;;;0.20;0.20;;;8.50;99.90;;;8.73;75.26;100831.03;4973857;28;20197;-81
2022/03/20 09:28:59;;;;;;;0.25;0.25;;;8.70;99.90;;;8.77;74.82;100815.31;4973659;28;20235;-81
2022/03/20 09:31:31;;;;;;;0.20;0.20;;;8.70;99.90;;;8.77;74.00;100793.34;4961382;28;20232;-80
2022/03/20 09:34:01;;;;;;;1.73;1.65;;;;;;;8.95;74.99;100823.63;4955544;28;20216;-79
2022/03/20 09:36:29;;;;;;;0.20;0.20;;;8.80;99.90;;;9.21;75.17;100855.00;4963697;28;20240;-79
2022/03/20 09:38:58;;;;;;;0.20;0.20;;;;;;;9.05;74.93;100830.00;4954929;28;20205;-79
2022/03/20 09:41:30;;;;;;;0.20;0.20;;;9.10;99.90;;;8.92;73.60;100791.03;4955479;28;20217;-77
2022/03/20 09:44:05;;;;;;;0.45;0.45;;;9.10;99.90;;;8.74;74.43;100791.53;4951775;28;20209;-78
2022/03/20 09:46:35;;;;;;;0.20;0.20;;;9.00;99.90;;;8.87;74.12;100801.47;4969310;28;20212;-78
2022/03/20 09:49:08;;;;;;;0.65;0.65;;;9.00;99.90;;;9.26;75.73;100853.34;4972864;28;20208;-77
2022/03/20 09:51:39;;;;;;;0.40;0.40;;;9.10;99.90;;;9.42;75.52;100858.06;4953102;28;20216;-78
2022/03/20 09:54:08;;;;;;;0.20;0.20;;;9.30;99.90;;;9.77;74.26;100871.97;4965556;28;20221;-78
2022/03/20 09:56:37;;;;;;;0.20;0.20;;;10.30;99.90;;;9.79;73.61;100837.66;4966130;28;20580;-79
2022/03/20 09:59:05;;;;;;;0.20;0.20;;;9.60;99.90;;;10.00;72.92;100827.47;4961896;28;20209;-78
2022/03/20 10:01:35;;;;;;;1.63;1.52;;;9.80;99.90;;;9.92;72.57;100805.31;4953711;28;20224;-78
2022/03/20 10:04:21;;;;;;;0.20;0.20;;;9.90;99.90;;;9.90;72.28;100792.09;4952624;28;20206;-78
2022/03/20 10:06:49;;;;;;;0.10;0.10;;;9.90;99.90;;;10.34;72.35;100834.25;4966895;28;20213;-82
2022/03/20 10:09:17;;;;;;;0.10;0.10;;;10.00;99.90;;;10.31;70.83;100788.38;4966387;28;20236;-80
2022/03/20 10:11:57;;;;;;;0.20;0.20;;;10.20;99.90;;;10.82;72.28;100860.59;4950657;28;20210;-80
2022/03/20 10:14:31;;;;;;;0.10;0.10;;;10.40;99.90;;;10.61;71.37;100796.81;4963586;28;20213;-79
2022/03/20 10:17:18;;;;;;;0.20;0.20;;;10.50;99.90;;;10.28;71.53;100760.16;4959958;28;20246;-79
2022/03/20 10:19:48;;;;;;;0.20;0.20;;;10.60;99.90;;;10.21;73.85;100761.81;4965125;28;20241;-81
2022/03/20 10:22:17;;;;;;;0.20;0.20;;;10.40;99.90;;;10.54;72.30;100801.13;4943482;28;20213;-82
2022/03/20 10:24:51;;;;;;;0.10;0.10;;;10.50;99.90;;;10.74;72.61;100819.91;4955360;28;20201;-81
2022/03/20 10:27:19;;;;;;;0.10;0.10;;;10.70;99.90;;;10.53;72.57;100772.91;4971806;28;20213;-80
2022/03/20 10:29:53;;;;;;;0.20;0.20;;;10.70;99.90;;;10.25;71.19;100723.09;4949199;28;20230;-80
2022/03/20 10:32:22;;;;;;;0.20;0.20;;;10.60;99.90;;;10.43;72.24;100757.75;4961380;28;20579;-82
2022/03/20 10:35:00;;;;;;;0.10;0.10;;;10.60;99.90;;;10.27;72.67;100727.53;4952705;28;20209;-81
2022/03/20 10:37:55;;;;;;;0.30;0.30;;;10.60;99.90;;;10.35;72.15;100738.22;4973584;28;20209;-84
2022/03/20 10:40:27;;;;;;;0.73;0.73;;;10.70;99.90;;;10.45;73.57;100769.25;4969839;28;20230;-83
2022/03/20 10:43:15;;;;;;;0.10;0.10;;;10.80;99.90;;;10.54;73.63;100773.78;4947422;29;20209;-81
2022/03/20 10:45:50;;;;;;;1.77;1.42;;;10.80;99.90;;;10.37;73.24;100732.97;4949229;28;20213;-82
2022/03/20 10:48:41;;;;;;;0.40;0.40;;;10.80;99.90;;;10.23;74.06;100724.81;4970900;28;20213;-80
2022/03/20 10:51:10;;;;;;;0.20;0.20;;;10.80;99.90;;;10.27;74.79;100739.88;4949545;29;20229;-81
2022/03/20 10:53:54;;;;;;;0.38;0.38;;;10.80;99.90;;;10.51;74.30;100755.22;4972017;28;20670;-87
2022/03/20 10:56:24;;;;;;;0.13;0.13;;;10.70;99.90;;;10.55;73.41;100747.38;4941110;28;20243;-82
2022/03/20 10:58:52;;;;;;;0.15;0.15;;;;;;;10.34;72.96;100714.41;4967022;28;20209;-81
2022/03/20 11:01:50;;;;;;;0.10;0.10;;;10.90;99.90;;;10.39;73.69;100729.47;4956840;28;20218;-81
2022/03/20 11:04:23;;;;;;;1.60;1.50;;;11.00;99.90;;;10.77;74.49;100801.44;4972103;28;20213;-81
2022/03/20 11:07:06;;;;;;;0.20;0.20;;;10.90;99.90;;;10.73;74.64;100786.41;4953388;28;20325;-85
2022/03/20 11:09:36;;;;;;;0.13;0.13;;;;;;;10.83;74.54;100795.34;4953820;28;20243;-82
2022/03/20 11:12:08;;;;;;;0.10;0.10;;;11.10;99.90;;;11.03;74.42;100803.56;4975274;28;20201;-81
2022/03/20 11:14:37;;;;;;;0.10;0.10;;;11.40;99.90;;;11.20;73.43;100802.00;4961583;28;20197;-81
2022/03/20 11:17:12;;;;;;;0.20;0.20;;;11.50;99.90;;;11.45;73.72;100811.13;4976423;28;20236;-83
2022/03/20 11:19:57;;;;;;;0.20;0.20;;;11.60;99.90;;;11.53;74.18;100812.09;4960586;28;20220;-82
2022/03/20 11:22:27;;;;;;;0.10;0.10;;;11.70;99.90;;;12.13;72.19;100845.47;4953377;28;20198;-81